Time;durP1;ratioP1;P1;durP2;ratioP2;P2;SDS_P1;SDS_P2;PMS_P1;PMS_P2;Temp;Humidity;BMP_temperature;BMP_pressure;BME280_temperature;BME280_humidity;BME280_pressure;Samples;Min_cycle;Max_cycle;Signal;HPM_P1;HPM_P2
2021/11/08 00:01:44;;;;;;;9.43;2.85;;;9.20;99.90;;;;;;4126887;28;20038;-73
2021/11/08 00:03:47;;;;;;;13.15;2.90;;;9.10;99.90;;;;;;4130311;28;20048;-73
2021/11/08 00:05:48;;;;;;;12.30;2.67;;;9.20;99.90;;;;;;4128274;28;20038;-74
2021/11/08 00:07:50;;;;;;;11.73;2.63;;;9.20;99.90;;;;;;4128549;28;20563;-73
2021/11/08 00:09:50;;;;;;;8.77;2.58;;;9.20;99.90;;;;;;4129871;28;20038;-73
2021/11/08 00:11:51;;;;;;;11.95;2.90;;;9.20;99.90;;;;;;4129655;28;20482;-73
2021/11/08 00:13:52;;;;;;;12.20;2.67;;;9.30;99.90;;;;;;4130588;28;20643;-74
2021/11/08 00:18:22;;;;;;;10.60;2.33;;;9.40;99.90;;;;;;4132910;28;20045;-73
2021/11/08 00:20:29;;;;;;;12.30;3.70;;;9.40;99.90;;;;;;4116187;28;20255;-73
2021/11/08 00:22:30;;;;;;;9.90;2.92;;;9.40;99.90;;;;;;4120587;28;20081;-73
2021/11/08 00:24:32;;;;;;;8.77;2.90;;;9.40;99.90;;;;;;4104735;28;20694;-73
2021/11/08 00:26:33;;;;;;;12.13;2.60;;;9.40;99.90;;;;;;4122492;28;20061;-73
2021/11/08 00:28:34;;;;;;;11.90;2.88;;;9.40;99.90;;;;;;4120935;28;20058;-73
2021/11/08 00:30:36;;;;;;;9.20;3.03;;;9.40;99.90;;;;;;4121722;28;20038;-73
2021/11/08 00:32:37;;;;;;;10.50;2.55;;;9.40;99.90;;;;;;4122258;28;20031;-74
2021/11/08 00:34:38;;;;;;;11.30;2.97;;;9.50;99.90;;;;;;4122247;28;20031;-74
2021/11/08 00:36:39;;;;;;;13.43;2.83;;;9.50;99.90;;;;;;4122512;28;20041;-73
2021/11/08 00:38:39;;;;;;;8.45;2.75;;;9.50;99.90;;;;;;4121476;28;20537;-74
2021/11/08 00:40:41;;;;;;;9.02;2.65;;;9.50;99.90;;;;;;4122265;28;20117;-73
2021/11/08 00:42:41;;;;;;;11.02;3.00;;;9.50;99.90;;;;;;4120700;28;20034;-73
2021/11/08 00:44:42;;;;;;;12.98;2.80;;;9.50;99.90;;;;;;4121166;28;20603;-73
2021/11/08 00:46:43;;;;;;;8.98;2.88;;;9.50;99.90;;;;;;4121884;28;20478;-73
2021/11/08 00:48:44;;;;;;;10.20;3.13;;;9.60;99.90;;;;;;4122004;28;20104;-74
2021/11/08 00:50:47;;;;;;;10.80;2.97;;;9.50;99.90;;;;;;4119583;28;20068;-74
2021/11/08 00:52:48;;;;;;;;;;;9.60;99.90;;;;;;4119442;28;20038;-73
2021/11/08 00:54:49;;;;;;;10.63;2.97;;;9.50;99.90;;;;;;4120300;28;20294;-73
2021/11/08 00:56:53;;;;;;;11.23;3.17;;;9.60;99.90;;;;;;4121112;28;20066;-73
2021/11/08 00:58:53;;;;;;;10.90;3.35;;;9.50;99.90;;;;;;4121396;28;20061;-73
2021/11/08 01:00:54;;;;;;;12.27;3.20;;;9.50;99.90;;;;;;4120874;28;20050;-73
2021/11/08 01:02:56;;;;;;;11.80;3.72;;;9.50;99.90;;;;;;4121041;28;20038;-74
2021/11/08 01:05:00;;;;;;;14.93;3.75;;;9.50;99.90;;;;;;4103567;28;20046;-73
2021/11/08 01:07:02;;;;;;;10.23;3.10;;;9.50;99.90;;;;;;4121176;28;20073;-73
2021/11/08 01:09:04;;;;;;;14.50;3.83;;;9.50;99.90;;;;;;4119992;28;20061;-73
2021/11/08 01:11:04;;;;;;;12.73;3.33;;;9.50;99.90;;;;;;4119248;28;20109;-73
2021/11/08 01:13:05;;;;;;;11.60;3.47;;;9.50;99.90;;;;;;4121441;28;20030;-73
2021/11/08 01:15:07;;;;;;;17.13;3.20;;;9.50;99.90;;;;;;4121413;28;20026;-74
2021/11/08 01:17:08;;;;;;;10.90;3.17;;;9.40;99.90;;;;;;4120789;28;20386;-73
2021/11/08 01:19:09;;;;;;;15.23;3.22;;;9.50;99.90;;;;;;4120942;28;20390;-73
2021/11/08 01:21:09;;;;;;;9.60;3.47;;;9.50;99.90;;;;;;4120461;28;20037;-74
2021/11/08 01:23:12;;;;;;;10.55;3.00;;;9.50;99.90;;;;;;4103220;28;20512;-73
2021/11/08 01:25:13;;;;;;;10.05;3.38;;;9.50;99.90;;;;;;4120550;28;20646;-73
2021/11/08 01:27:14;;;;;;;12.45;3.90;;;9.50;99.90;;;;;;4120815;28;20049;-73
2021/11/08 01:29:15;;;;;;;10.18;3.50;;;9.50;99.90;;;;;;4119811;28;20264;-73
2021/11/08 01:31:17;;;;;;;15.02;4.25;;;9.40;99.90;;;;;;4118895;28;20090;-73
2021/11/08 01:33:19;;;;;;;22.00;4.05;;;9.40;99.90;;;;;;4120693;28;20506;-73
2021/11/08 01:35:26;;;;;;;14.25;3.95;;;9.40;99.90;;;;;;4119714;28;20101;-73
2021/11/08 01:37:28;;;;;;;12.63;3.65;;;9.30;99.90;;;;;;4120574;28;20027;-73
2021/11/08 01:39:33;;;;;;;12.93;3.63;;;9.30;99.90;;;;;;4119888;28;20030;-73
2021/11/08 01:41:33;;;;;;;15.32;3.40;;;9.30;99.90;;;;;;4120835;28;20046;-74
2021/11/08 01:43:35;;;;;;;13.98;4.13;;;9.30;99.90;;;;;;4119595;28;20065;-74
2021/11/08 01:45:35;;;;;;;13.13;3.90;;;9.20;99.90;;;;;;4121514;28;20564;-73
2021/11/08 01:47:36;;;;;;;10.38;3.30;;;9.20;99.90;;;;;;4120429;28;20031;-73
2021/11/08 01:49:39;;;;;;;16.42;3.95;;;9.30;99.90;;;;;;4121093;28;20482;-73
2021/11/08 01:51:39;;;;;;;10.50;3.60;;;9.20;99.90;;;;;;4120474;28;20087;-73
2021/11/08 01:53:41;;;;;;;13.43;3.80;;;9.20;99.90;;;;;;4121126;28;20030;-73
2021/11/08 01:55:42;;;;;;;11.90;3.83;;;9.20;99.90;;;;;;4119063;28;20034;-73
2021/11/08 01:57:43;;;;;;;15.48;3.80;;;9.30;99.90;;;;;;4121241;28;20390;-73
2021/11/08 01:59:44;;;;;;;14.25;3.67;;;9.30;99.90;;;;;;4122508;28;20030;-74
2021/11/08 02:01:45;;;;;;;11.75;3.22;;;9.30;99.90;;;;;;4121956;28;20039;-74
2021/11/08 02:03:46;;;;;;;12.35;3.85;;;9.30;99.90;;;;;;4121999;28;20034;-74
2021/11/08 02:05:47;;;;;;;9.75;3.45;;;9.30;99.90;;;;;;4122690;28;20043;-74
2021/11/08 02:07:49;;;;;;;10.82;3.70;;;9.30;99.90;;;;;;4121894;28;20027;-74
2021/11/08 02:09:50;;;;;;;9.90;3.47;;;9.30;99.90;;;;;;4122031;28;20454;-74
2021/11/08 02:11:50;;;;;;;17.13;3.63;;;9.30;99.90;;;;;;4122930;28;20030;-74
2021/11/08 02:13:53;;;;;;;9.93;2.75;;;9.30;99.90;;;;;;4122237;28;20550;-74
2021/11/08 02:15:54;;;;;;;;;;;9.30;99.90;;;;;;4122969;28;20398;-74
2021/11/08 02:17:55;;;;;;;10.02;2.92;;;9.30;99.90;;;;;;4127714;28;19910;-73
2021/11/08 02:19:57;;;;;;;10.35;3.22;;;9.30;99.90;;;;;;4121954;28;20663;-74
2021/11/08 02:22:00;;;;;;;10.48;3.30;;;9.30;99.90;;;;;;4125784;28;20045;-74
2021/11/08 02:24:03;;;;;;;10.40;3.72;;;9.30;99.90;;;;;;4124667;28;20117;-74
2021/11/08 02:26:07;;;;;;;14.45;4.30;;;9.30;99.90;;;;;;4121740;28;20065;-74
2021/11/08 02:28:11;;;;;;;12.25;3.45;;;9.30;99.90;;;;;;4121455;28;20197;-74
2021/11/08 02:30:12;;;;;;;14.70;3.83;;;9.30;99.90;;;;;;4121239;28;20117;-74
2021/11/08 02:32:13;;;;;;;12.48;3.53;;;9.20;99.90;;;;;;4121793;28;20038;-74
2021/11/08 02:34:14;;;;;;;8.82;3.63;;;9.20;99.90;;;;;;4121947;28;20522;-74
2021/11/08 02:36:16;;;;;;;10.30;3.45;;;9.20;99.90;;;;;;4121496;28;20019;-74
2021/11/08 02:38:22;;;;;;;11.38;3.40;;;9.20;99.90;;;;;;4121586;28;20037;-74
2021/11/08 02:40:25;;;;;;;12.02;3.45;;;9.20;99.90;;;;;;4120737;28;20033;-74
2021/11/08 02:42:25;;;;;;;11.35;4.00;;;9.20;99.90;;;;;;4119654;28;20046;-74
2021/11/08 02:44:27;;;;;;;12.63;4.15;;;9.20;99.90;;;;;;4119731;28;20118;-74
2021/11/08 02:46:28;;;;;;;11.15;3.63;;;9.10;99.90;;;;;;4136303;28;20663;-74
2021/11/08 02:48:29;;;;;;;10.70;3.22;;;9.10;99.90;;;;;;4119691;28;20053;-74
2021/11/08 02:50:32;;;;;;;10.13;3.22;;;9.20;99.90;;;;;;4120662;28;20034;-74
2021/11/08 02:52:33;;;;;;;9.88;3.58;;;9.10;99.90;;;;;;4119760;28;20042;-74
2021/11/08 02:54:40;;;;;;;18.20;4.32;;;9.10;99.90;;;;;;4121474;28;20042;-74
2021/11/08 02:56:40;;;;;;;14.27;3.33;;;9.10;99.90;;;;;;4121111;28;20590;-74
2021/11/08 02:58:44;;;;;;;10.35;3.50;;;9.10;99.90;;;;;;4103636;28;20134;-74
2021/11/08 03:00:45;;;;;;;13.40;4.03;;;9.10;99.90;;;;;;4120427;28;20406;-74
2021/11/08 03:02:47;;;;;;;9.85;3.55;;;9.10;99.90;;;;;;4121584;28;20026;-74
2021/11/08 03:04:52;;;;;;;;;;;9.10;99.90;;;;;;4121554;28;20049;-74
2021/11/08 03:06:52;;;;;;;11.35;3.72;;;9.10;99.90;;;;;;4120633;28;19910;-74
2021/11/08 03:08:54;;;;;;;14.00;3.65;;;9.10;99.90;;;;;;4121046;28;20487;-74
2021/11/08 03:10:57;;;;;;;10.48;3.28;;;9.10;99.90;;;;;;4119026;28;20038;-74
2021/11/08 03:12:59;;;;;;;15.68;4.00;;;9.10;99.90;;;;;;4121383;28;20062;-74
2021/11/08 03:17:04;;;;;;;15.07;3.90;;;9.10;99.90;;;;;;4124189;28;20030;-73
2021/11/08 03:19:17;;;;;;;14.57;4.35;;;9.10;99.90;;;;;;4122642;28;20035;-74
2021/11/08 03:21:19;;;;;;;;;;;9.10;99.90;;;;;;4123876;28;20109;-74
2021/11/08 03:23:19;;;;;;;12.23;3.65;;;9.10;99.90;;;;;;4123134;28;20404;-74
2021/11/08 03:27:47;;;;;;;11.70;4.13;;;9.10;99.90;;;;;;4123588;28;20022;-74
2021/11/08 03:29:47;;;;;;;12.73;3.92;;;9.10;99.90;;;;;;4122991;28;20034;-74
2021/11/08 03:31:50;;;;;;;11.18;4.03;;;9.10;99.90;;;;;;4123438;28;20101;-74
2021/11/08 03:33:52;;;;;;;15.65;4.07;;;9.10;99.90;;;;;;4123639;28;20035;-74
2021/11/08 03:35:53;;;;;;;13.63;4.13;;;9.20;99.90;;;;;;4121946;28;20126;-74
2021/11/08 03:37:56;;;;;;;10.60;3.58;;;9.10;99.90;;;;;;4122023;28;20038;-74
2021/11/08 03:39:57;;;;;;;9.85;3.90;;;9.20;99.90;;;;;;4123299;28;20035;-74
2021/11/08 03:41:58;;;;;;;12.35;3.90;;;9.20;99.90;;;;;;4121987;28;20479;-74
2021/11/08 03:43:59;;;;;;;12.30;3.28;;;9.20;99.90;;;;;;4121733;28;20034;-74
2021/11/08 03:46:00;;;;;;;15.52;4.55;;;9.20;99.90;;;;;;4123360;28;20081;-74
2021/11/08 03:48:03;;;;;;;13.88;4.00;;;9.30;99.90;;;;;;4123331;28;20026;-74
2021/11/08 03:50:07;;;;;;;10.50;3.78;;;9.20;99.90;;;;;;4121559;28;20031;-74
2021/11/08 03:52:08;;;;;;;11.50;3.75;;;9.20;99.90;;;;;;4123613;28;20027;-74
2021/11/08 03:54:08;;;;;;;11.98;3.95;;;9.20;99.90;;;;;;4123233;28;20093;-74
2021/11/08 03:56:09;;;;;;;17.30;4.88;;;9.20;99.90;;;;;;4122967;28;20137;-74
2021/11/08 03:58:10;;;;;;;12.10;3.85;;;9.20;99.90;;;;;;4121389;28;20046;-74
2021/11/08 04:00:13;;;;;;;17.15;4.25;;;9.20;99.90;;;;;;4122478;28;20052;-74
2021/11/08 04:02:14;;;;;;;;;;;9.20;99.90;;;;;;4123749;28;20046;-74
2021/11/08 04:04:14;;;;;;;15.60;4.00;;;9.20;99.90;;;;;;4123125;28;20477;-74
2021/11/08 04:06:15;;;;;;;12.35;4.30;;;9.30;99.90;;;;;;4122750;28;20505;-74
2021/11/08 04:08:19;;;;;;;17.65;4.10;;;9.30;99.90;;;;;;4123183;28;20550;-74
2021/11/08 04:10:21;;;;;;;10.98;3.72;;;9.30;99.90;;;;;;4119604;28;20045;-74
2021/11/08 04:12:24;;;;;;;11.00;4.22;;;9.30;99.90;;;;;;4123296;28;20329;-74
2021/11/08 04:14:25;;;;;;;13.93;4.35;;;9.30;99.90;;;;;;4122834;28;20224;-74
2021/11/08 04:16:28;;;;;;;12.17;4.13;;;9.30;99.90;;;;;;4120692;28;20054;-74
2021/11/08 04:18:31;;;;;;;19.60;5.03;;;9.30;99.90;;;;;;4122995;28;20851;-74
2021/11/08 04:20:33;;;;;;;11.30;3.70;;;9.30;99.90;;;;;;4121641;28;20040;-74
2021/11/08 04:22:34;;;;;;;14.02;4.25;;;9.30;99.90;;;;;;4122782;28;20118;-74
2021/11/08 04:24:35;;;;;;;14.18;4.60;;;9.30;99.90;;;;;;4122747;28;20034;-74
2021/11/08 04:26:37;;;;;;;18.92;4.82;;;9.30;99.90;;;;;;4120523;28;20106;-74
2021/11/08 04:28:38;;;;;;;16.77;5.05;;;9.20;99.90;;;;;;4122476;28;20235;-74
2021/11/08 04:30:43;;;;;;;13.93;4.93;;;9.20;99.90;;;;;;4121686;28;20035;-74
2021/11/08 04:32:51;;;;;;;16.10;4.53;;;9.20;99.90;;;;;;4120376;28;20034;-74
2021/11/08 04:35:02;;;;;;;17.20;4.20;;;9.10;99.90;;;;;;4120207;28;20093;-74
2021/11/08 04:39:32;;;;;;;16.73;5.07;;;9.10;99.90;;;;;;4121434;28;20446;-74
2021/11/08 04:42:23;;;;;;;12.88;4.53;;;9.00;99.90;;;;;;4121563;28;20038;-74
2021/11/08 04:46:21;;;;;;;13.65;4.28;;;9.00;99.90;;;;;;4120243;28;20073;-74
2021/11/08 04:50:52;;;;;;;20.25;5.75;;;9.00;99.90;;;;;;4121375;28;20026;-74
2021/11/08 05:22:56;;;;;;;17.67;4.63;;;8.90;99.90;;;;;;4121237;28;20659;-74
2021/11/08 05:25:12;;;;;;;13.55;4.15;;;8.90;99.90;;;;;;4123060;28;20064;-74
2021/11/08 05:31:54;;;;;;;14.57;4.68;;;8.90;99.90;;;;;;4132285;28;20054;-74
2021/11/08 05:33:54;;;;;;;16.52;4.55;;;8.90;99.90;;;;;;4121161;28;20580;-74
2021/11/08 05:35:55;;;;;;;10.68;4.10;;;8.90;99.90;;;;;;4119252;28;20041;-74
2021/11/08 05:37:56;;;;;;;16.60;5.45;;;8.90;99.90;;;;;;4126592;28;20651;-74
2021/11/08 05:40:05;;;;;;;17.02;5.72;;;8.90;99.90;;;;;;4135543;28;20092;-74
2021/11/08 05:42:06;;;;;;;14.95;5.53;;;8.90;99.90;;;;;;4135538;28;20033;-74
2021/11/08 05:44:07;;;;;;;12.00;4.70;;;8.90;99.90;;;;;;4123369;28;20060;-74
2021/11/08 05:46:08;;;;;;;17.40;4.85;;;8.90;99.90;;;;;;4129021;28;20033;-74
2021/11/08 05:48:09;;;;;;;14.25;5.05;;;8.90;99.90;;;;;;4127020;28;20919;-74
2021/11/08 05:50:11;;;;;;;13.82;4.72;;;8.90;99.90;;;;;;4128090;28;20057;-74
2021/11/08 05:52:14;;;;;;;;;;;8.90;99.90;;;;;;4129263;28;20037;-74
2021/11/08 05:54:22;;;;;;;14.80;5.00;;;8.80;99.90;;;;;;4124403;28;20000;-74
2021/11/08 05:56:55;;;;;;;13.27;4.28;;;8.80;99.90;;;;;;4127978;28;20617;-74
2021/11/08 06:49:50;;;;;;;13.02;4.45;;;8.70;99.90;;;;;;4132660;28;20030;-73
2021/11/08 06:51:53;;;;;;;14.05;4.43;;;8.60;99.90;;;;;;4134852;28;20045;-73
2021/11/08 06:54:00;;;;;;;15.93;4.90;;;8.60;99.90;;;;;;4130957;28;20034;-73
2021/11/08 06:56:01;;;;;;;16.58;4.70;;;8.60;99.90;;;;;;4134726;28;20750;-73
2021/11/08 06:58:11;;;;;;;19.70;5.53;;;8.70;99.90;;;;;;4133415;28;20045;-73
2021/11/08 07:00:15;;;;;;;20.52;5.65;;;8.70;99.90;;;;;;4132414;28;20044;-73
2021/11/08 07:02:19;;;;;;;19.63;5.38;;;8.60;99.90;;;;;;4131446;28;20030;-73
2021/11/08 07:04:20;;;;;;;14.32;4.63;;;8.70;99.90;;;;;;4133842;28;20553;-73
2021/11/08 07:06:22;;;;;;;13.93;5.07;;;8.70;99.90;;;;;;4132666;28;20461;-73
2021/11/08 07:08:22;;;;;;;14.13;4.73;;;8.60;99.90;;;;;;4131102;28;20041;-73
2021/11/08 07:10:23;;;;;;;18.30;5.22;;;8.70;99.90;;;;;;4130941;28;20053;-74
2021/11/08 07:12:23;;;;;;;18.20;5.63;;;8.70;99.90;;;;;;4130856;28;20033;-73
2021/11/08 07:14:24;;;;;;;19.10;5.68;;;8.60;99.90;;;;;;4135272;28;20029;-73
2021/11/08 07:16:25;;;;;;;15.52;4.90;;;8.60;99.90;;;;;;4132332;28;20126;-73
2021/11/08 07:18:25;;;;;;;19.75;5.90;;;8.60;99.90;;;;;;4130182;28;20045;-73
2021/11/08 07:20:28;;;;;;;16.67;5.35;;;8.60;99.90;;;;;;4132518;28;20038;-73
2021/11/08 07:22:29;;;;;;;14.63;4.82;;;8.60;99.90;;;;;;4131737;28;20108;-73
2021/11/08 07:24:30;;;;;;;19.25;5.88;;;8.70;99.90;;;;;;4134006;28;20414;-73
2021/11/08 07:26:31;;;;;;;24.02;5.97;;;8.70;99.90;;;;;;4130106;28;20096;-73
2021/11/08 07:28:32;;;;;;;18.58;5.13;;;8.70;99.90;;;;;;4137215;28;20107;-73
2021/11/08 07:30:35;;;;;;;16.38;5.22;;;8.70;99.90;;;;;;4133837;28;20045;-72
2021/11/08 07:32:36;;;;;;;18.83;5.05;;;8.70;99.90;;;;;;4135206;28;20052;-73
2021/11/08 07:34:37;;;;;;;8.95;3.70;;;8.70;99.90;;;;;;4129468;28;20774;-73
2021/11/08 07:36:38;;;;;;;16.90;4.80;;;8.70;99.90;;;;;;4132893;28;20797;-73
2021/11/08 07:38:38;;;;;;;18.17;6.03;;;8.70;99.90;;;;;;4129944;28;20042;-73
2021/11/08 07:40:39;;;;;;;17.52;5.53;;;8.80;99.90;;;;;;4135270;28;20064;-73
2021/11/08 07:42:42;;;;;;;13.50;4.72;;;8.80;99.90;;;;;;4130537;28;20274;-73
2021/11/08 07:44:43;;;;;;;17.38;5.13;;;8.80;99.90;;;;;;4137220;28;20057;-74
2021/11/08 07:46:44;;;;;;;18.23;5.30;;;8.80;99.90;;;;;;4132883;28;20051;-73
2021/11/08 07:48:45;;;;;;;15.25;5.45;;;8.80;99.90;;;;;;4132140;28;20710;-73
2021/11/08 07:50:48;;;;;;;11.73;5.15;;;8.90;99.90;;;;;;4130517;28;20140;-73
2021/11/08 07:52:49;;;;;;;18.90;5.15;;;8.90;99.90;;;;;;4133841;28;20037;-73
2021/11/08 07:54:49;;;;;;;12.98;5.18;;;8.90;99.90;;;;;;4135523;28;20049;-73
2021/11/08 07:56:50;;;;;;;16.83;4.63;;;8.90;99.90;;;;;;4130479;28;20035;-73
2021/11/08 07:58:51;;;;;;;18.15;5.35;;;8.90;99.90;;;;;;4129385;28;20085;-73
2021/11/08 08:00:52;;;;;;;24.33;6.13;;;8.90;99.90;;;;;;4129548;28;20065;-73
2021/11/08 08:02:52;;;;;;;11.43;5.15;;;9.00;99.90;;;;;;4130651;28;20056;-73
2021/11/08 08:04:53;;;;;;;16.95;5.07;;;9.00;99.90;;;;;;4113926;28;20091;-73
2021/11/08 08:06:53;;;;;;;20.98;5.47;;;9.00;99.90;;;;;;4125556;28;20461;-73
2021/11/08 08:08:54;;;;;;;17.48;5.25;;;9.00;99.90;;;;;;4128555;28;20034;-73
2021/11/08 08:10:55;;;;;;;19.08;5.38;;;9.00;99.90;;;;;;4129167;28;20434;-73
2021/11/08 08:12:57;;;;;;;20.15;5.88;;;9.00;99.90;;;;;;4128266;28;20097;-73
2021/11/08 08:14:57;;;;;;;20.85;6.47;;;9.00;99.90;;;;;;4132356;28;20181;-73
2021/11/08 08:17:01;;;;;;;17.65;5.50;;;9.00;99.90;;;;;;4131737;28;20043;-73
2021/11/08 08:19:04;;;;;;;16.35;5.20;;;9.10;99.90;;;;;;4133637;28;20427;-74
2021/11/08 08:21:06;;;;;;;;;;;9.10;99.90;;;;;;4131031;28;20070;-73
2021/11/08 08:23:07;;;;;;;15.23;5.13;;;9.10;99.90;;;;;;4131158;28;19925;-73
2021/11/08 08:25:09;;;;;;;17.15;5.57;;;9.10;99.90;;;;;;4131792;28;20057;-73
2021/11/08 08:27:10;;;;;;;13.18;5.03;;;9.10;99.90;;;;;;4129540;28;20079;-73
2021/11/08 08:29:12;;;;;;;21.13;5.57;;;9.20;99.90;;;;;;4120088;28;20034;-73
2021/11/08 08:31:19;;;;;;;23.52;6.15;;;9.20;99.90;;;;;;4135367;28;20366;-73
2021/11/08 08:33:20;;;;;;;16.58;4.68;;;9.20;99.90;;;;;;4131731;28;20050;-74
2021/11/08 08:35:22;;;;;;;18.80;5.82;;;9.20;99.90;;;;;;4130398;28;20069;-73
2021/11/08 08:37:23;;;;;;;19.92;4.88;;;9.30;99.90;;;;;;4133152;28;20038;-73
2021/11/08 08:39:24;;;;;;;16.60;5.65;;;9.30;99.90;;;;;;4129765;28;20493;-73
2021/11/08 08:41:24;;;;;;;17.05;5.28;;;9.30;99.90;;;;;;4129909;28;20046;-74
2021/11/08 08:43:28;;;;;;;16.70;5.00;;;9.30;99.90;;;;;;4131239;28;20038;-74
2021/11/08 08:45:31;;;;;;;11.02;4.30;;;9.30;99.90;;;;;;4134064;28;20037;-74
2021/11/08 08:47:33;;;;;;;16.25;4.88;;;9.30;99.90;;;;;;4132832;28;20050;-74
2021/11/08 08:49:34;;;;;;;26.77;6.32;;;9.40;99.90;;;;;;4133630;28;20042;-74
2021/11/08 08:51:35;;;;;;;20.30;5.38;;;9.30;99.90;;;;;;4129315;28;20053;-73
2021/11/08 08:53:37;;;;;;;18.73;5.32;;;9.40;99.90;;;;;;4132521;28;20057;-73
2021/11/08 08:55:40;;;;;;;13.18;4.82;;;9.40;99.90;;;;;;4130575;28;20096;-74
2021/11/08 08:57:41;;;;;;;20.58;6.82;;;9.40;99.90;;;;;;4129051;28;20034;-74
2021/11/08 08:59:42;;;;;;;19.58;5.88;;;9.40;99.90;;;;;;4133298;28;20057;-73
2021/11/08 09:01:43;;;;;;;20.88;5.85;;;9.40;99.90;;;;;;4128513;28;20042;-73
2021/11/08 09:03:43;;;;;;;13.40;4.85;;;9.50;99.90;;;;;;4114995;28;20459;-73
2021/11/08 09:05:45;;;;;;;14.43;5.10;;;9.50;99.90;;;;;;4128209;28;20072;-74
2021/11/08 09:07:46;;;;;;;14.32;4.82;;;9.50;99.90;;;;;;4127311;28;20038;-73
2021/11/08 09:09:47;;;;;;;18.55;5.47;;;9.50;99.90;;;;;;4129869;28;20042;-73
2021/11/08 09:11:47;;;;;;;15.85;5.30;;;9.50;99.90;;;;;;4126723;28;20034;-73
2021/11/08 09:13:49;;;;;;;16.63;5.35;;;9.60;99.90;;;;;;4131139;28;20034;-73
2021/11/08 09:15:50;;;;;;;20.67;6.13;;;9.60;99.90;;;;;;4127205;28;20407;-73
2021/11/08 09:17:51;;;;;;;19.80;5.40;;;9.60;99.90;;;;;;4128513;28;20065;-73
2021/11/08 09:19:52;;;;;;;22.85;5.97;;;9.60;99.90;;;;;;4129789;28;20513;-74
2021/11/08 09:21:52;;;;;;;17.90;5.18;;;9.60;99.90;;;;;;4134408;28;20042;-73
2021/11/08 09:23:55;;;;;;;19.88;5.40;;;9.60;99.90;;;;;;4137385;28;20030;-74
2021/11/08 09:25:56;;;;;;;21.08;6.53;;;9.60;99.90;;;;;;4133377;28;20206;-74
2021/11/08 09:27:59;;;;;;;23.33;6.18;;;9.60;99.90;;;;;;4140968;28;20026;-74
2021/11/08 09:29:59;;;;;;;16.42;4.95;;;9.60;99.90;;;;;;4135039;28;20033;-75
2021/11/08 09:32:00;;;;;;;26.30;6.07;;;9.60;99.90;;;;;;4138750;28;20026;-75
2021/11/08 09:34:08;;;;;;;23.05;5.40;;;9.60;99.90;;;;;;4139402;28;20026;-74
2021/11/08 09:36:09;;;;;;;17.33;5.15;;;9.70;99.90;;;;;;4138412;28;20108;-74
2021/11/08 09:38:10;;;;;;;15.07;4.68;;;9.70;99.90;;;;;;4134599;28;20041;-75
2021/11/08 09:40:14;;;;;;;19.98;5.20;;;9.70;99.90;;;;;;4137116;28;20038;-74
2021/11/08 09:42:17;;;;;;;15.10;4.53;;;9.80;99.90;;;;;;4138520;28;20066;-74
2021/11/08 09:44:18;;;;;;;13.80;5.20;;;9.80;99.90;;;;;;4135766;28;20042;-74
2021/11/08 09:46:20;;;;;;;16.33;5.38;;;9.90;99.90;;;;;;4133607;28;20041;-74
2021/11/08 09:48:21;;;;;;;16.13;4.68;;;9.90;99.90;;;;;;4135265;28;20034;-74
2021/11/08 09:50:25;;;;;;;23.90;5.72;;;10.00;99.90;;;;;;4133461;28;20062;-74
2021/11/08 09:52:28;;;;;;;16.25;5.10;;;10.10;99.90;;;;;;4130270;28;20060;-74
2021/11/08 09:54:28;;;;;;;19.30;5.85;;;10.20;99.90;;;;;;4135381;28;20034;-74
2021/11/08 09:56:29;;;;;;;25.02;6.53;;;10.30;99.90;;;;;;4137309;28;20049;-74
2021/11/08 09:58:30;;;;;;;21.08;4.97;;;10.40;99.90;;;;;;4131677;28;20033;-74
2021/11/08 10:00:36;;;;;;;21.95;6.00;;;10.40;99.90;;;;;;4130435;28;20034;-74
2021/11/08 10:02:37;;;;;;;15.68;4.97;;;10.50;99.90;;;;;;4131765;28;20583;-75
2021/11/08 10:04:40;;;;;;;20.90;5.32;;;10.60;99.90;;;;;;4135270;28;20042;-75
2021/11/08 10:06:43;;;;;;;17.05;5.13;;;10.60;99.90;;;;;;4130979;28;20105;-75
2021/11/08 10:08:44;;;;;;;;;;;10.70;99.90;;;;;;4127660;28;20034;-74
2021/11/08 10:10:45;;;;;;;22.13;5.85;;;10.80;99.90;;;;;;4130275;28;19917;-73
2021/11/08 10:12:49;;;;;;;25.83;6.63;;;10.70;99.90;;;;;;4127101;28;20041;-74
2021/11/08 10:14:50;;;;;;;21.17;6.63;;;10.80;99.90;;;;;;4127481;28;20038;-74
2021/11/08 10:16:51;;;;;;;19.05;6.88;;;10.80;99.90;;;;;;4130344;28;20034;-74
2021/11/08 10:18:56;;;;;;;20.23;6.20;;;10.90;99.90;;;;;;4133512;28;20057;-74
2021/11/08 10:21:06;;;;;;;25.30;10.50;;;10.90;99.90;;;;;;4126203;28;20030;-74
2021/11/08 10:23:08;;;;;;;20.05;6.93;;;10.90;99.90;;;;;;4131433;28;20051;-74
2021/11/08 10:25:15;;;;;;;27.45;10.20;;;10.90;99.90;;;;;;4132478;28;20046;-74
2021/11/08 10:27:17;;;;;;;19.33;5.78;;;11.00;99.90;;;;;;4136873;28;21358;-74
2021/11/08 10:29:20;;;;;;;20.83;5.75;;;11.00;99.90;;;;;;4141306;28;20046;-74
2021/11/08 10:31:28;;;;;;;23.27;5.82;;;10.90;99.90;;;;;;4132955;28;20038;-74
2021/11/08 10:33:33;;;;;;;22.88;7.20;;;11.00;99.90;;;;;;4132959;28;20037;-74
2021/11/08 10:35:45;;;;;;;24.45;7.30;;;11.00;99.90;;;;;;4138674;28;20065;-74
2021/11/08 10:37:46;;;;;;;15.93;6.43;;;11.00;99.90;;;;;;4139725;28;20037;-74
2021/11/08 10:39:47;;;;;;;18.08;6.05;;;11.00;99.90;;;;;;4139215;28;20026;-74
2021/11/08 10:41:47;;;;;;;20.33;5.93;;;11.00;99.90;;;;;;4140472;28;20040;-73
2021/11/08 10:43:56;;;;;;;20.52;5.25;;;11.10;99.90;;;;;;4140007;28;20030;-73
2021/11/08 10:46:00;;;;;;;19.17;6.32;;;11.10;99.90;;;;;;4134427;28;20036;-74
2021/11/08 10:48:04;;;;;;;19.80;5.72;;;11.10;99.90;;;;;;4139650;28;20034;-74
2021/11/08 10:50:13;;;;;;;25.33;5.82;;;11.10;99.90;;;;;;4136738;28;20048;-74
2021/11/08 10:52:17;;;;;;;23.02;6.05;;;11.10;99.90;;;;;;4141036;28;20033;-74
2021/11/08 10:54:34;;;;;;;22.92;5.97;;;11.10;99.90;;;;;;4137752;28;20600;-74
2021/11/08 10:56:48;;;;;;;22.83;5.70;;;11.10;99.90;;;;;;4136705;28;20053;-74
2021/11/08 10:58:49;;;;;;;15.23;5.15;;;11.00;99.90;;;;;;4137996;28;20039;-73
2021/11/08 11:00:54;;;;;;;24.92;6.10;;;11.10;99.90;;;;;;4139683;28;20460;-74
2021/11/08 11:02:54;;;;;;;18.50;5.72;;;11.10;99.90;;;;;;4139642;28;20022;-74
2021/11/08 11:04:58;;;;;;;17.05;5.70;;;11.10;99.90;;;;;;4119873;28;20632;-74
2021/11/08 11:06:59;;;;;;;23.02;5.53;;;11.10;99.90;;;;;;4133002;28;20037;-74
2021/11/08 11:09:02;;;;;;;15.93;5.43;;;11.10;99.90;;;;;;4137320;28;20045;-74
2021/11/08 11:11:05;;;;;;;13.63;4.95;;;11.10;99.90;;;;;;4137848;28;20110;-74
2021/11/08 11:13:08;;;;;;;19.33;5.40;;;11.10;99.90;;;;;;4132722;28;20033;-74
2021/11/08 11:15:15;;;;;;;20.65;5.47;;;11.20;99.90;;;;;;4136410;28;20037;-74
2021/11/08 11:17:28;;;;;;;16.35;4.82;;;11.20;99.90;;;;;;4135547;28;20041;-74
2021/11/08 11:19:33;;;;;;;27.42;6.03;;;11.20;99.90;;;;;;4133503;28;20042;-74
2021/11/08 11:21:35;;;;;;;17.30;6.00;;;11.20;99.90;;;;;;4132167;28;20030;-74
2021/11/08 11:23:43;;;;;;;16.03;4.77;;;11.10;99.90;;;;;;4137867;28;20104;-74
2021/11/08 11:25:50;;;;;;;17.08;5.75;;;11.20;99.90;;;;;;4116585;28;20285;-74
2021/11/08 11:27:51;;;;;;;15.45;5.05;;;11.20;99.90;;;;;;4132160;28;20042;-74
2021/11/08 11:29:53;;;;;;;15.65;4.07;;;11.20;99.90;;;;;;4139403;28;20098;-74
2021/11/08 11:31:54;;;;;;;21.63;5.32;;;11.30;99.90;;;;;;4134448;28;20112;-73
2021/11/08 11:34:09;;;;;;;18.95;4.97;;;11.30;99.90;;;;;;4118120;28;20035;-74
2021/11/08 11:36:12;;;;;;;16.38;5.05;;;11.30;99.90;;;;;;4133287;28;20422;-74
2021/11/08 11:38:19;;;;;;;21.77;5.32;;;11.30;99.90;;;;;;4135740;28;20034;-74
2021/11/08 11:40:19;;;;;;;21.27;5.50;;;11.30;99.90;;;;;;4136733;28;20409;-74
2021/11/08 11:42:20;;;;;;;22.35;5.93;;;11.30;99.90;;;;;;4134218;28;20030;-74
2021/11/08 11:44:23;;;;;;;18.45;4.65;;;11.30;99.90;;;;;;4120481;28;20394;-73
2021/11/08 11:46:32;;;;;;;21.35;5.38;;;11.30;99.90;;;;;;4132787;28;20022;-74
2021/11/08 11:48:35;;;;;;;22.48;5.15;;;11.30;99.90;;;;;;4131712;28;20034;-74
2021/11/08 11:50:36;;;;;;;17.48;5.65;;;11.30;99.90;;;;;;4132748;28;20227;-74
2021/11/08 11:52:42;;;;;;;19.23;5.38;;;11.30;99.90;;;;;;4132036;28;20045;-73
2021/11/08 11:54:42;;;;;;;17.15;5.13;;;11.30;99.90;;;;;;4114331;28;20034;-74
2021/11/08 11:56:45;;;;;;;21.35;5.13;;;11.30;99.90;;;;;;4130424;28;20044;-74
2021/11/08 11:58:48;;;;;;;17.42;4.95;;;11.30;99.90;;;;;;4126671;28;20034;-75
2021/11/08 12:00:52;;;;;;;16.33;4.30;;;11.30;99.90;;;;;;4132667;28;20092;-74
2021/11/08 12:02:55;;;;;;;21.25;5.45;;;11.40;99.90;;;;;;4129362;28;20124;-74
2021/11/08 12:04:56;;;;;;;14.05;4.57;;;11.40;99.90;;;;;;4111502;28;20043;-74
2021/11/08 12:07:00;;;;;;;17.25;4.90;;;11.40;99.90;;;;;;4130676;28;20034;-74
2021/11/08 12:09:05;;;;;;;12.13;3.75;;;11.40;99.90;;;;;;4112390;28;20110;-74
2021/11/08 12:11:08;;;;;;;20.13;4.97;;;11.50;99.90;;;;;;4129887;28;20043;-74
2021/11/08 12:13:14;;;;;;;15.43;4.40;;;11.50;99.90;;;;;;4113221;28;20040;-73
2021/11/08 12:15:28;;;;;;;18.30;5.47;;;11.50;99.90;;;;;;4127882;28;20137;-75
2021/11/08 12:17:38;;;;;;;12.75;4.20;;;11.50;99.90;;;;;;4128286;28;20030;-73
2021/11/08 12:19:42;;;;;;;17.50;5.43;;;11.50;99.90;;;;;;4137022;28;20050;-72